Terminal Aerodrome Forecast
Issued by NWS Cleveland, OH

Home | Current Version | Previous Version | Text Only | Print | Product List | Glossary Off
Versions: 1 2 3 4 5 6 7 8 9 10 11 12 13 14 15 16 17

184
FTUS41 KCLE 231139
TAFYNG
TAF
KYNG 231139Z 2312/2412 VRB03KT P6SM BKN250
     FM231500 29005KT P6SM SCT100 OVC250
     FM232100 33007KT P6SM SCT050 OVC100
     FM240000 01007KT P6SM SCT015 BKN050
     FM240300 01007KT P6SM BKN010=

USA.gov is the U.S. government's official web portal to all federal, state and local government web resources and services.